createdAt,value
2023-04-18T00:01:40.287Z,19.50
2023-04-18T00:04:09.777Z,19.60
2023-04-18T00:06:37.876Z,20.60
2023-04-18T00:09:05.927Z,18.50
2023-04-18T00:11:35.076Z,19.60
2023-04-18T00:14:03.475Z,22.00
2023-04-18T00:16:32.658Z,18.10
2023-04-18T00:19:02.332Z,19.20
2023-04-18T00:21:30.304Z,17.50
2023-04-18T00:23:58.241Z,19.90
2023-04-18T00:26:27.686Z,19.70
2023-04-18T00:28:55.599Z,19.60
2023-04-18T00:31:23.428Z,19.60
2023-04-18T00:33:51.350Z,19.70
2023-04-18T00:36:19.092Z,20.00
2023-04-18T00:38:46.825Z,18.70
2023-04-18T00:41:15.442Z,21.10
2023-04-18T00:43:43.175Z,23.10
2023-04-18T00:46:11.177Z,20.50
2023-04-18T00:48:39.640Z,21.10
2023-04-18T00:51:09.298Z,22.70
2023-04-18T00:53:37.600Z,22.00
2023-04-18T00:56:06.288Z,22.80
2023-04-18T00:58:34.316Z,21.00
2023-04-18T01:01:02.145Z,22.10
2023-04-18T01:03:30.276Z,19.50
2023-04-18T01:05:59.185Z,21.10
2023-04-18T01:08:28.099Z,23.70
2023-04-18T01:10:55.876Z,21.00
2023-04-18T01:13:23.779Z,18.60
2023-04-18T01:15:52.170Z,19.30
2023-04-18T01:18:20.867Z,22.20
2023-04-18T01:20:51.519Z,21.80
2023-04-18T01:23:20.450Z,19.60
2023-04-18T01:25:51.919Z,21.50
2023-04-18T01:28:24.176Z,23.20
2023-04-18T01:30:52.257Z,21.50
2023-04-18T01:33:20.090Z,26.60
2023-04-18T01:35:47.920Z,19.80
2023-04-18T01:38:15.756Z,20.40
2023-04-18T01:40:43.898Z,18.20
2023-04-18T01:43:11.745Z,22.20
2023-04-18T01:45:39.585Z,20.20
2023-04-18T01:48:07.500Z,25.30
2023-04-18T01:50:35.310Z,22.70
2023-04-18T01:53:03.126Z,18.80
2023-04-18T01:55:30.833Z,21.40
2023-04-18T01:57:58.689Z,20.60
2023-04-18T02:00:26.437Z,20.90
2023-04-18T02:02:54.658Z,21.50
2023-04-18T02:05:22.705Z,21.80
2023-04-18T02:07:50.867Z,22.60
2023-04-18T02:10:20.383Z,23.00
2023-04-18T02:12:48.265Z,19.90
2023-04-18T02:15:16.076Z,21.30
2023-04-18T02:17:44.061Z,18.40
2023-04-18T02:20:13.434Z,19.60
2023-04-18T02:22:41.274Z,20.00
2023-04-18T02:25:09.472Z,21.10
2023-04-18T02:27:37.262Z,21.60
2023-04-18T02:30:06.655Z,23.60
2023-04-18T02:32:34.469Z,21.80
2023-04-18T02:35:02.287Z,22.30
2023-04-18T02:37:30.000Z,20.40
2023-04-18T02:39:57.837Z,22.20
2023-04-18T02:42:25.569Z,23.50
2023-04-18T02:44:53.594Z,23.40
2023-04-18T02:47:21.846Z,20.70
2023-04-18T02:49:49.708Z,24.00
2023-04-18T02:52:17.486Z,23.90
2023-04-18T02:54:45.272Z,23.90
2023-04-18T02:57:13.110Z,24.40
2023-04-18T02:59:40.872Z,26.10
2023-04-18T03:02:08.656Z,19.00
2023-04-18T03:04:36.543Z,22.80
2023-04-18T03:07:04.305Z,23.30
2023-04-18T03:09:32.080Z,23.60
2023-04-18T03:11:59.889Z,22.20
2023-04-18T03:14:27.781Z,21.30
2023-04-18T03:16:55.761Z,24.60
2023-04-18T03:19:23.624Z,20.70
2023-04-18T03:21:51.365Z,21.00
2023-04-18T03:24:19.089Z,19.50
2023-04-18T03:26:47.095Z,21.40
2023-04-18T03:29:14.862Z,21.20
2023-04-18T03:31:42.816Z,21.50
2023-04-18T03:34:11.090Z,19.40
2023-04-18T03:36:38.996Z,21.30
2023-04-18T03:39:06.890Z,19.80
2023-04-18T03:41:34.619Z,18.70
2023-04-18T03:44:02.368Z,22.20
2023-04-18T03:46:30.369Z,18.80
2023-04-18T03:48:58.155Z,21.40
2023-04-18T03:51:26.255Z,23.70
2023-04-18T03:53:53.994Z,20.00
2023-04-18T03:56:21.891Z,21.60
2023-04-18T03:58:49.773Z,21.70
2023-04-18T04:01:17.590Z,22.10
2023-04-18T04:03:45.506Z,22.90
2023-04-18T04:06:13.643Z,23.60
2023-04-18T04:08:41.846Z,21.60
2023-04-18T04:11:09.557Z,23.40
2023-04-18T04:13:37.396Z,23.40
2023-04-18T04:16:07.264Z,24.80
2023-04-18T04:18:35.066Z,28.30
2023-04-18T04:21:03.906Z,24.80
2023-04-18T04:23:31.753Z,24.40
2023-04-18T04:26:03.268Z,25.30
2023-04-18T04:28:31.700Z,24.50
2023-04-18T04:30:59.531Z,21.80
2023-04-18T04:33:29.719Z,22.20
2023-04-18T04:35:57.635Z,20.90
2023-04-18T04:38:25.553Z,21.10
2023-04-18T04:40:53.357Z,21.60
2023-04-18T04:43:21.716Z,25.60
2023-04-18T04:45:51.762Z,19.50
2023-04-18T04:48:22.320Z,19.00
2023-04-18T04:50:59.461Z,20.00
2023-04-18T04:53:32.578Z,20.20
2023-04-18T04:56:00.401Z,19.20
2023-04-18T04:58:28.227Z,20.10
2023-04-18T05:00:56.679Z,16.90
2023-04-18T05:03:24.840Z,19.00
2023-04-18T05:05:53.878Z,18.60
2023-04-18T05:08:21.579Z,19.00
2023-04-18T05:10:50.297Z,16.70
2023-04-18T05:13:18.118Z,17.90
2023-04-18T05:15:46.087Z,18.00
2023-04-18T05:18:14.513Z,16.30
2023-04-18T05:20:42.277Z,18.40
2023-04-18T05:23:10.097Z,20.70
2023-04-18T05:25:37.918Z,18.80
2023-04-18T05:28:05.764Z,17.00
2023-04-18T05:30:33.597Z,18.40
2023-04-18T05:33:01.395Z,20.00
2023-04-18T05:35:29.315Z,21.20
2023-04-18T05:37:58.852Z,21.60
2023-04-18T05:40:27.576Z,19.10
2023-04-18T05:42:55.417Z,20.10
2023-04-18T05:45:23.224Z,18.30
2023-04-18T05:47:51.265Z,17.00
2023-04-18T05:50:19.128Z,17.20
2023-04-18T05:52:46.920Z,16.80
2023-04-18T05:55:14.657Z,20.10
2023-04-18T05:57:42.429Z,15.90
2023-04-18T06:00:11.993Z,18.00
2023-04-18T06:02:39.917Z,17.20
2023-04-18T06:05:08.765Z,15.70
2023-04-18T06:07:36.772Z,15.40
2023-04-18T06:10:09.277Z,14.30
2023-04-18T06:12:37.288Z,15.40
2023-04-18T06:15:06.600Z,18.20
2023-04-18T06:17:35.136Z,19.60
2023-04-18T06:20:06.302Z,15.10
2023-04-18T06:22:34.213Z,17.20
2023-04-18T06:25:02.116Z,16.00
2023-04-18T06:27:31.864Z,16.90
2023-04-18T06:30:00.237Z,14.90
2023-04-18T06:32:28.386Z,15.00
2023-04-18T06:34:56.277Z,16.80
2023-04-18T06:37:24.550Z,17.90
2023-04-18T06:39:52.353Z,15.50
2023-04-18T06:42:22.200Z,15.80
2023-04-18T06:44:50.829Z,13.90
2023-04-18T06:47:18.883Z,14.30
2023-04-18T06:49:46.835Z,14.40
2023-04-18T06:52:14.626Z,14.90
2023-04-18T06:54:42.420Z,14.90
2023-04-18T06:57:10.730Z,15.20
2023-04-18T06:59:38.642Z,14.60
2023-04-18T07:02:06.428Z,13.20
2023-04-18T07:04:34.837Z,14.60
2023-04-18T07:07:05.239Z,14.80
2023-04-18T07:09:33.131Z,15.60
2023-04-18T07:12:01.085Z,12.70
2023-04-18T07:14:28.965Z,14.10
2023-04-18T07:16:57.781Z,12.30
2023-04-18T07:19:25.710Z,14.30
2023-04-18T07:21:54.978Z,13.60
2023-04-18T07:24:23.808Z,13.00
2023-04-18T07:26:54.814Z,13.20
2023-04-18T07:29:23.006Z,12.70
2023-04-18T07:31:51.049Z,14.00
2023-04-18T07:34:24.267Z,12.60
2023-04-18T07:36:52.062Z,13.00
2023-04-18T07:39:36.109Z,15.00
2023-04-18T07:42:04.977Z,13.20
2023-04-18T07:44:36.328Z,15.30
2023-04-18T07:47:11.918Z,13.60
2023-04-18T07:49:39.811Z,15.90
2023-04-18T07:52:07.743Z,13.20
2023-04-18T07:54:35.527Z,16.00
2023-04-18T07:57:03.362Z,15.40
2023-04-18T07:59:32.358Z,13.50
2023-04-18T08:02:00.231Z,15.60
2023-04-18T08:04:30.411Z,14.00
2023-04-18T08:06:58.661Z,13.30
2023-04-18T08:09:26.501Z,12.70
2023-04-18T08:11:56.223Z,13.50
2023-04-18T08:14:24.046Z,14.80
2023-04-18T08:16:52.226Z,14.40
2023-04-18T08:19:24.005Z,13.60
2023-04-18T08:21:52.254Z,18.00
2023-04-18T08:24:20.225Z,12.20
2023-04-18T08:26:49.683Z,12.40
2023-04-18T08:29:18.074Z,13.20
2023-04-18T08:31:46.070Z,12.30
2023-04-18T08:34:13.892Z,18.30
2023-04-18T08:36:41.662Z,13.50
2023-04-18T08:39:09.687Z,14.40
2023-04-18T08:41:38.209Z,15.50
2023-04-18T08:44:06.813Z,13.40
2023-04-18T08:46:36.103Z,13.30
2023-04-18T08:49:05.151Z,16.40
2023-04-18T08:51:33.420Z,13.60
2023-04-18T08:54:04.439Z,16.10
2023-04-18T08:56:32.595Z,12.50
2023-04-18T08:59:00.559Z,13.30
2023-04-18T09:01:58.919Z,12.50
2023-04-18T09:04:45.157Z,11.40
2023-04-18T09:07:17.184Z,13.50
2023-04-18T09:09:52.990Z,11.70
2023-04-18T09:12:26.723Z,11.80
2023-04-18T09:15:16.712Z,12.20
2023-04-18T09:17:51.103Z,12.10
2023-04-18T09:20:42.362Z,11.70
2023-04-18T09:23:14.904Z,11.80
2023-04-18T09:25:49.347Z,11.80
2023-04-18T09:28:30.422Z,12.90
2023-04-18T09:31:15.663Z,13.50
2023-04-18T09:33:56.965Z,11.50
2023-04-18T09:36:28.096Z,11.00
2023-04-18T09:38:57.259Z,12.00
2023-04-18T09:41:30.535Z,11.50
2023-04-18T09:44:14.655Z,11.20
2023-04-18T09:46:47.129Z,12.00
2023-04-18T09:49:17.816Z,12.40
2023-04-18T09:51:47.013Z,11.60
2023-04-18T09:54:16.659Z,12.00
2023-04-18T09:56:47.128Z,13.10
2023-04-18T09:59:29.065Z,12.50
2023-04-18T10:01:59.752Z,11.40
2023-04-18T10:04:29.018Z,13.00
2023-04-18T10:06:57.147Z,11.90
2023-04-18T10:09:25.143Z,12.90
2023-04-18T10:11:54.931Z,14.40
2023-04-18T10:14:23.617Z,14.10
2023-04-18T10:16:51.913Z,12.20
2023-04-18T10:19:28.690Z,14.10
2023-04-18T10:22:00.483Z,15.90
2023-04-18T10:24:53.924Z,15.90
2023-04-18T10:27:49.866Z,12.00
2023-04-18T10:30:18.983Z,14.40
2023-04-18T10:32:46.874Z,15.60
2023-04-18T10:35:14.889Z,13.50
2023-04-18T10:37:58.882Z,16.20
2023-04-18T10:40:34.860Z,14.20
2023-04-18T10:43:02.732Z,13.60
2023-04-18T10:45:36.450Z,17.00
2023-04-18T10:48:27.790Z,17.40
2023-04-18T10:51:19.951Z,16.50
2023-04-18T10:53:57.716Z,15.80
2023-04-18T10:56:28.144Z,14.10
2023-04-18T10:59:02.116Z,16.60
2023-04-18T11:01:33.279Z,16.90
2023-04-18T11:04:01.611Z,16.90
2023-04-18T11:06:31.318Z,18.10
2023-04-18T11:09:13.819Z,16.40
2023-04-18T11:11:43.667Z,14.90
2023-04-18T11:14:11.707Z,13.70
2023-04-18T11:16:40.256Z,15.80
2023-04-18T11:19:23.758Z,16.00
2023-04-18T11:21:51.855Z,14.80
2023-04-18T11:24:24.647Z,14.90
2023-04-18T11:26:55.872Z,17.10
2023-04-18T11:29:24.076Z,17.00
2023-04-18T11:31:55.993Z,16.10
2023-04-18T11:34:36.076Z,14.00
2023-04-18T11:37:08.170Z,15.80
2023-04-18T11:39:43.380Z,14.30
2023-04-18T11:42:11.540Z,15.20
2023-04-18T11:44:44.065Z,14.70
2023-04-18T11:47:34.085Z,14.20
2023-04-18T11:50:07.872Z,16.00
2023-04-18T11:52:37.262Z,15.10
2023-04-18T11:55:27.403Z,17.20
2023-04-18T11:57:58.719Z,17.20
2023-04-18T12:00:36.032Z,18.40
2023-04-18T12:03:11.875Z,17.30
2023-04-18T12:05:45.481Z,16.10
2023-04-18T12:08:22.376Z,17.30
2023-04-18T12:10:52.536Z,18.10
2023-04-18T12:13:29.311Z,20.40
2023-04-18T12:15:57.329Z,15.80
2023-04-18T12:18:25.444Z,16.80
2023-04-18T12:20:56.914Z,16.10
2023-04-18T12:23:33.912Z,16.50
2023-04-18T12:26:04.744Z,17.10
2023-04-18T12:28:34.442Z,20.20
2023-04-18T12:31:05.544Z,14.80
2023-04-18T12:33:35.929Z,18.10
2023-04-18T12:36:08.704Z,15.50
2023-04-18T12:38:36.929Z,15.00
2023-04-18T12:41:05.595Z,16.90
2023-04-18T12:43:33.491Z,15.90
2023-04-18T12:46:01.736Z,14.40
2023-04-18T12:48:29.645Z,14.40
2023-04-18T12:50:57.411Z,14.90
2023-04-18T12:53:25.808Z,17.60
2023-04-18T12:55:53.657Z,15.80
2023-04-18T12:58:21.710Z,14.70
2023-04-18T13:00:49.513Z,15.40
2023-04-18T13:03:17.471Z,15.50
2023-04-18T13:05:46.328Z,14.00
2023-04-18T13:08:17.672Z,14.00
2023-04-18T13:10:47.776Z,21.50
2023-04-18T13:13:15.662Z,23.80
2023-04-18T13:15:43.646Z,12.50
2023-04-18T13:18:11.461Z,16.00
2023-04-18T13:20:39.305Z,17.30
2023-04-18T13:23:07.312Z,13.60
2023-04-18T13:25:35.155Z,13.10
2023-04-18T13:28:02.995Z,13.80
2023-04-18T13:30:31.993Z,15.00
2023-04-18T13:32:59.883Z,14.60
2023-04-18T13:35:27.692Z,15.20
2023-04-18T13:37:56.178Z,15.80
2023-04-18T13:40:24.386Z,18.30
2023-04-18T13:42:52.150Z,17.60
2023-04-18T13:45:20.697Z,17.50
2023-04-18T13:47:48.615Z,13.10
2023-04-18T13:50:16.460Z,15.20
2023-04-18T13:52:44.273Z,16.00
2023-04-18T13:55:12.828Z,13.00
2023-04-18T13:57:41.526Z,14.80
2023-04-18T14:00:11.256Z,14.60
2023-04-18T14:02:39.249Z,12.40
2023-04-18T14:05:08.146Z,13.10
2023-04-18T14:07:36.630Z,17.70
2023-04-18T14:10:05.190Z,21.20
2023-04-18T14:12:33.055Z,14.30
2023-04-18T14:15:00.961Z,13.10
2023-04-18T14:17:28.862Z,14.50
2023-04-18T14:19:56.735Z,12.70
2023-04-18T14:22:24.579Z,12.40
2023-04-18T14:24:54.639Z,13.20
2023-04-18T14:27:22.587Z,13.80
2023-04-18T14:29:50.962Z,15.60
2023-04-18T14:32:18.967Z,14.50
2023-04-18T14:34:46.817Z,12.00
2023-04-18T14:37:15.686Z,11.90
2023-04-18T14:39:44.369Z,12.20
2023-04-18T14:42:12.270Z,13.90
2023-04-18T14:44:40.370Z,14.20
2023-04-18T14:47:08.207Z,12.10
2023-04-18T14:49:35.980Z,12.80
2023-04-18T14:52:04.165Z,13.20
2023-04-18T14:54:32.753Z,13.10
2023-04-18T14:57:01.595Z,12.00
2023-04-18T14:59:29.517Z,10.90
2023-04-18T15:01:57.340Z,15.00
2023-04-18T15:04:25.503Z,11.00
2023-04-18T15:06:53.466Z,12.60
2023-04-18T15:09:21.386Z,10.80
2023-04-18T15:11:49.186Z,10.50
2023-04-18T15:14:17.252Z,12.20
2023-04-18T15:16:45.312Z,12.90
2023-04-18T15:19:13.129Z,11.90
2023-04-18T15:21:40.938Z,10.80
2023-04-18T15:24:09.023Z,11.40
2023-04-18T15:26:37.137Z,10.30
2023-04-18T15:29:05.140Z,11.10
2023-04-18T15:31:33.378Z,13.50
2023-04-18T15:34:08.314Z,8.40
2023-04-18T15:36:36.417Z,8.80
2023-04-18T15:39:05.946Z,10.70
2023-04-18T15:41:37.305Z,10.70
2023-04-18T15:44:07.219Z,8.40
2023-04-18T15:46:36.742Z,9.60
2023-04-18T15:49:05.273Z,13.10
2023-04-18T15:51:33.045Z,9.80
2023-04-18T15:54:00.995Z,9.60
2023-04-18T15:56:29.377Z,7.20
2023-04-18T15:59:00.313Z,8.50
2023-04-18T16:01:28.406Z,8.30
2023-04-18T16:03:56.386Z,7.70
2023-04-18T16:06:24.364Z,10.10
2023-04-18T16:08:52.244Z,9.00
2023-04-18T16:11:21.686Z,8.00
2023-04-18T16:13:49.767Z,8.00
2023-04-18T16:16:17.632Z,6.50
2023-04-18T16:18:45.829Z,7.10
2023-04-18T16:21:15.323Z,7.80
2023-04-18T16:23:43.418Z,8.40
2023-04-18T16:26:11.320Z,8.20
2023-04-18T16:28:39.405Z,6.90
2023-04-18T16:31:07.213Z,7.60
2023-04-18T16:33:35.190Z,7.00
2023-04-18T16:36:03.356Z,9.60
2023-04-18T16:38:31.378Z,9.00
2023-04-18T16:41:01.730Z,7.40
2023-04-18T16:43:36.571Z,11.10
2023-04-18T16:46:04.787Z,9.00
2023-04-18T16:48:32.772Z,8.60
2023-04-18T16:51:00.745Z,7.70
2023-04-18T16:53:28.564Z,8.80
2023-04-18T16:55:56.759Z,7.80
2023-04-18T16:58:24.788Z,8.70
2023-04-18T17:00:52.990Z,9.30
2023-04-18T17:03:24.154Z,8.90
2023-04-18T17:06:00.482Z,9.00
2023-04-18T17:08:29.332Z,7.20
2023-04-18T17:10:57.474Z,10.00
2023-04-18T17:13:27.277Z,8.50
2023-04-18T17:15:55.186Z,9.70
2023-04-18T17:18:23.445Z,9.50
2023-04-18T17:20:51.427Z,7.20
2023-04-18T17:23:19.426Z,7.10
2023-04-18T17:25:47.733Z,7.90
2023-04-18T17:28:15.728Z,10.40
2023-04-18T17:30:43.995Z,9.20
2023-04-18T17:33:11.960Z,10.80
2023-04-18T17:35:42.647Z,10.50
2023-04-18T17:38:10.978Z,14.60
2023-04-18T17:40:39.781Z,8.70
2023-04-18T17:43:07.807Z,10.30
2023-04-18T17:45:35.808Z,8.20
2023-04-18T17:48:04.300Z,15.70
2023-04-18T17:50:32.625Z,8.80
2023-04-18T17:53:01.053Z,8.70
2023-04-18T17:55:28.883Z,7.70
2023-04-18T17:57:57.575Z,7.30
2023-04-18T18:00:25.798Z,9.90
2023-04-18T18:02:54.076Z,7.80
2023-04-18T18:05:22.108Z,10.40
2023-04-18T18:07:51.732Z,9.50
2023-04-18T18:10:20.195Z,13.00
2023-04-18T18:12:48.010Z,9.10
2023-04-18T18:15:16.009Z,7.40
2023-04-18T18:17:43.890Z,7.50
2023-04-18T18:20:12.008Z,7.20
2023-04-18T18:22:39.863Z,8.00
2023-04-18T18:25:08.696Z,8.60
2023-04-18T18:27:37.698Z,7.30
2023-04-18T18:30:07.050Z,8.40
2023-04-18T18:32:35.235Z,12.00
2023-04-18T18:35:04.342Z,10.00
2023-04-18T18:37:33.114Z,9.90
2023-04-18T18:40:05.047Z,9.10
2023-04-18T18:42:33.103Z,7.40
2023-04-18T18:45:01.811Z,8.90
2023-04-18T18:47:30.825Z,7.90
2023-04-18T18:49:58.713Z,7.40
2023-04-18T18:52:29.905Z,9.60
2023-04-18T18:54:57.936Z,8.20
2023-04-18T18:57:26.274Z,7.20
2023-04-18T18:59:55.850Z,7.50
2023-04-18T19:02:24.372Z,9.70
2023-04-18T19:04:52.668Z,7.60
2023-04-18T19:07:23.896Z,9.90
2023-04-18T19:09:53.501Z,6.50
2023-04-18T19:12:21.773Z,9.70
2023-04-18T19:14:50.264Z,9.80
2023-04-18T19:17:20.542Z,10.70
2023-04-18T19:19:48.379Z,7.60
2023-04-18T19:22:16.991Z,7.40
2023-04-18T19:24:45.091Z,8.20
2023-04-18T19:27:13.337Z,10.60
2023-04-18T19:29:41.547Z,8.60
2023-04-18T19:32:10.201Z,6.70
2023-04-18T19:34:38.570Z,7.30
2023-04-18T19:37:06.744Z,22.90
2023-04-18T19:39:34.764Z,8.60
2023-04-18T19:42:04.038Z,7.20
2023-04-18T19:44:32.512Z,6.30
2023-04-18T19:47:00.484Z,10.60
2023-04-18T19:49:28.365Z,8.80
2023-04-18T19:51:56.236Z,8.20
2023-04-18T19:54:24.089Z,9.00
2023-04-18T19:56:53.957Z,8.20
2023-04-18T19:59:24.978Z,7.80
2023-04-18T20:01:52.853Z,9.20
2023-04-18T20:04:22.271Z,9.10
2023-04-18T20:06:50.382Z,6.30
2023-04-18T20:09:18.237Z,7.40
2023-04-18T20:11:48.284Z,8.00
2023-04-18T20:14:16.143Z,10.10
2023-04-18T20:16:45.930Z,7.40
2023-04-18T20:19:14.875Z,7.60
2023-04-18T20:21:43.030Z,7.80
2023-04-18T20:24:10.857Z,7.10
2023-04-18T20:26:38.684Z,6.80
2023-04-18T20:29:09.216Z,10.40
2023-04-18T20:31:41.873Z,8.10
2023-04-18T20:34:10.048Z,7.00
2023-04-18T20:36:41.827Z,9.80
2023-04-18T20:39:17.639Z,9.10
2023-04-18T20:41:56.380Z,8.10
2023-04-18T20:44:31.277Z,8.00
2023-04-18T20:46:59.110Z,8.00
2023-04-18T20:49:27.956Z,8.20
2023-04-18T20:51:55.864Z,7.10
2023-04-18T20:54:23.938Z,7.10
2023-04-18T20:56:51.799Z,6.40
2023-04-18T20:59:19.506Z,8.80
2023-04-18T21:01:48.812Z,8.00
2023-04-18T21:04:16.776Z,8.10
2023-04-18T21:06:44.949Z,11.30
2023-04-18T21:09:12.796Z,6.70
2023-04-18T21:11:40.780Z,7.30
2023-04-18T21:14:08.618Z,7.60
2023-04-18T21:16:39.446Z,7.70
2023-04-18T21:19:07.525Z,5.30
2023-04-18T21:21:35.656Z,6.60
2023-04-18T21:24:04.258Z,9.00
2023-04-18T21:26:32.000Z,7.80
2023-04-18T21:29:04.164Z,6.90
2023-04-18T21:31:33.853Z,6.80
2023-04-18T21:34:05.048Z,9.50
2023-04-18T21:36:33.189Z,10.40
2023-04-18T21:39:01.359Z,7.40
2023-04-18T21:41:29.340Z,8.20
2023-04-18T21:43:57.161Z,8.30
2023-04-18T21:46:25.057Z,7.30
2023-04-18T21:48:52.844Z,6.10
2023-04-18T21:51:20.731Z,5.90
2023-04-18T21:53:48.469Z,5.90
2023-04-18T21:56:16.999Z,7.10
2023-04-18T21:58:44.822Z,9.70
2023-04-18T22:01:12.644Z,7.00
2023-04-18T22:03:40.599Z,6.90
2023-04-18T22:06:08.654Z,7.20
2023-04-18T22:08:36.789Z,7.10
2023-04-18T22:11:05.084Z,7.40
2023-04-18T22:13:33.268Z,5.20
2023-04-18T22:16:04.932Z,5.40
2023-04-18T22:18:34.091Z,6.80
2023-04-18T22:21:03.473Z,6.50
2023-04-18T22:23:31.464Z,6.60
2023-04-18T22:25:59.315Z,6.40
2023-04-18T22:28:30.885Z,7.70
2023-04-18T22:30:58.680Z,6.30
2023-04-18T22:33:26.704Z,7.90
2023-04-18T22:35:55.758Z,11.20
2023-04-18T22:38:25.308Z,6.70
2023-04-18T22:40:53.190Z,5.20
2023-04-18T22:43:23.695Z,8.30
2023-04-18T22:45:51.737Z,7.40
2023-04-18T22:48:19.720Z,6.50
2023-04-18T22:50:47.565Z,6.00
2023-04-18T22:53:16.286Z,7.40
2023-04-18T22:55:45.831Z,9.80
2023-04-18T22:58:14.455Z,7.50
2023-04-18T23:00:42.544Z,7.60
2023-04-18T23:03:10.666Z,7.80
2023-04-18T23:05:38.670Z,9.40
2023-04-18T23:08:07.079Z,8.40
2023-04-18T23:10:35.144Z,5.90
2023-04-18T23:13:02.900Z,9.50
2023-04-18T23:15:30.767Z,10.80
2023-04-18T23:17:58.606Z,6.30
2023-04-18T23:20:26.429Z,8.50
2023-04-18T23:22:55.555Z,7.50
2023-04-18T23:25:23.327Z,9.80
2023-04-18T23:27:51.189Z,8.50
2023-04-18T23:30:19.023Z,8.20
2023-04-18T23:32:50.200Z,9.60
2023-04-18T23:35:18.113Z,8.30
2023-04-18T23:37:46.221Z,10.40
2023-04-18T23:40:13.956Z,10.80
2023-04-18T23:42:42.170Z,7.00
2023-04-18T23:45:10.963Z,6.50
2023-04-18T23:47:38.768Z,10.40
2023-04-18T23:50:07.895Z,6.90
2023-04-18T23:52:35.728Z,10.30
2023-04-18T23:55:03.736Z,6.60
2023-04-18T23:57:31.557Z,10.40
2023-04-18T23:59:59.234Z,12.40
